createdAt,value
2022-11-24T00:02:26.810Z,3.26
2022-11-24T00:06:30.718Z,3.23
2022-11-24T00:10:35.477Z,3.27
2022-11-24T00:14:38.257Z,3.25
2022-11-24T00:18:42.425Z,3.24
2022-11-24T00:22:45.171Z,3.25
2022-11-24T00:26:49.316Z,3.23
2022-11-24T00:30:52.039Z,3.23
2022-11-24T00:34:54.849Z,3.24
2022-11-24T00:38:59.608Z,3.20
2022-11-24T00:43:03.734Z,3.20
2022-11-24T00:47:06.653Z,3.20
2022-11-24T00:51:11.622Z,3.19
2022-11-24T00:55:14.471Z,3.14
2022-11-24T00:59:18.550Z,3.10
2022-11-24T01:03:22.578Z,3.09
2022-11-24T01:07:25.314Z,3.06
2022-11-24T01:11:29.667Z,3.08
2022-11-24T01:15:36.399Z,3.08
2022-11-24T01:19:39.835Z,3.10
2022-11-24T01:23:45.817Z,3.16
2022-11-24T01:27:48.673Z,3.18
2022-11-24T01:31:52.794Z,3.18
2022-11-24T01:35:55.656Z,3.17
2022-11-24T01:39:58.394Z,3.17
2022-11-24T01:44:01.094Z,3.23
2022-11-24T01:48:08.519Z,3.20
2022-11-24T01:52:15.928Z,3.25
2022-11-24T01:56:19.622Z,3.25
2022-11-24T02:00:22.609Z,3.29
2022-11-24T02:04:30.780Z,3.25
2022-11-24T02:08:40.276Z,3.31
2022-11-24T02:12:46.850Z,3.29
2022-11-24T02:16:51.531Z,3.32
2022-11-24T02:20:56.405Z,3.34
2022-11-24T02:25:07.844Z,3.41
2022-11-24T02:29:12.966Z,3.46
2022-11-24T02:33:16.491Z,3.50
2022-11-24T02:37:19.162Z,3.49
2022-11-24T02:41:23.836Z,3.58
2022-11-24T02:45:29.001Z,3.61
2022-11-24T02:49:31.748Z,3.66
2022-11-24T02:53:34.446Z,3.69
2022-11-24T02:57:37.161Z,3.76
2022-11-24T03:01:41.308Z,3.81
2022-11-24T03:05:44.127Z,3.83
2022-11-24T03:09:46.844Z,3.87
2022-11-24T03:13:50.611Z,3.86
2022-11-24T03:17:57.563Z,3.89
2022-11-24T03:22:00.514Z,3.93
2022-11-24T03:26:10.230Z,3.92
2022-11-24T03:30:13.757Z,4.00
2022-11-24T03:34:17.814Z,4.10
2022-11-24T03:38:20.506Z,4.11
2022-11-24T03:42:23.244Z,4.14
2022-11-24T03:46:26.071Z,4.16
2022-11-24T03:50:30.239Z,4.21
2022-11-24T03:54:33.031Z,4.28
2022-11-24T03:58:35.959Z,4.33
2022-11-24T04:02:38.933Z,4.35
2022-11-24T04:06:43.306Z,4.39
2022-11-24T04:10:45.931Z,4.43
2022-11-24T04:14:48.642Z,4.48
2022-11-24T04:18:53.355Z,4.55
2022-11-24T04:22:57.442Z,4.56
2022-11-24T04:27:00.276Z,4.61
2022-11-24T04:31:03.320Z,4.60
2022-11-24T04:35:06.706Z,4.68
2022-11-24T04:39:24.292Z,4.67
